Time;durP1;ratioP1;P1;durP2;ratioP2;P2;SDS_P1;SDS_P2;PMS_P1;PMS_P2;Temp;Humidity;BMP_temperature;BMP_pressure;BME280_temperature;BME280_humidity;BME280_pressure;Samples;Min_cycle;Max_cycle;Signal;HPM_P1;HPM_P2
2022/06/11 00:01:27;;;;;;;6.27;4.90;;;22.10;69.40;;;24.74;51.00;101917.81;5113226;28;20222;-62
2022/06/11 00:03:59;;;;;;;5.10;4.40;;;22.10;69.40;;;24.74;51.12;101922.38;5112638;28;20269;-62
2022/06/11 00:06:29;;;;;;;5.13;4.53;;;22.10;69.50;;;24.73;51.59;101918.03;5113875;28;20180;-63
2022/06/11 00:08:57;;;;;;;7.33;4.83;;;22.10;69.50;;;24.70;50.94;101915.81;5113623;28;20511;-62
2022/06/11 00:11:26;;;;;;;4.53;4.10;;;22.10;69.80;;;24.70;51.48;101913.13;5112965;28;20208;-61
2022/06/11 00:13:54;;;;;;;5.37;4.53;;;22.10;69.50;;;24.70;51.15;101918.50;5113019;28;20184;-61
2022/06/11 00:16:25;;;;;;;6.40;4.80;;;22.10;69.80;;;24.69;51.23;101916.88;5113234;28;20191;-62
2022/06/11 00:18:56;;;;;;;5.33;4.83;;;22.00;69.90;;;24.67;51.40;101924.38;5112937;28;20196;-61
2022/06/11 00:21:26;;;;;;;6.33;5.30;;;22.10;70.10;;;24.64;51.73;101924.84;5112658;28;20216;-62
2022/06/11 00:23:57;;;;;;;5.10;4.63;;;22.00;69.90;;;24.60;51.54;101923.69;5111628;28;20215;-62
2022/06/11 00:26:25;;;;;;;5.30;4.80;;;22.00;70.10;;;24.58;51.55;101915.06;5112139;28;20192;-62
2022/06/11 00:28:53;;;;;;;5.57;4.83;;;22.00;70.00;;;24.57;52.11;101913.41;5112257;28;20200;-62
2022/06/11 00:31:22;;;;;;;8.67;4.57;;;22.00;70.10;;;24.57;52.13;101913.41;5112294;28;20708;-62
2022/06/11 00:33:49;;;;;;;4.93;4.00;;;22.00;70.10;;;24.60;51.85;101915.63;5111766;28;20192;-62
2022/06/11 00:36:18;;;;;;;8.00;4.10;;;22.00;69.90;;;24.64;51.58;101909.53;5112694;28;20194;-62
2022/06/11 00:38:48;;;;;;;5.73;4.20;;;22.00;70.30;;;24.63;51.63;101913.25;5111627;28;20195;-61
2022/06/11 00:41:20;;;;;;;7.77;4.47;;;22.00;70.30;;;24.65;51.52;101910.34;5112543;28;20208;-62
2022/06/11 00:43:48;;;;;;;6.23;4.30;;;22.00;70.20;;;24.63;51.86;101915.13;5111485;28;20208;-61
2022/06/11 00:46:57;;;;;;;5.57;4.23;;;22.00;70.10;;;24.57;52.14;101916.09;5112827;28;20203;-62
2022/06/11 00:49:35;;;;;;;6.67;4.67;;;22.00;70.30;;;24.61;51.23;101904.59;5033822;28;20202;-62
2022/06/11 00:52:23;;;;;;;7.23;3.90;;;22.00;70.10;;;24.60;51.21;101912.94;5023341;28;20230;-62
2022/06/11 00:55:01;;;;;;;8.40;4.60;;;22.00;70.10;;;24.62;51.28;101910.81;5013936;28;20249;-62
2022/06/11 00:57:36;;;;;;;7.90;4.60;;;22.00;69.90;;;24.64;51.20;101904.13;5014693;28;20274;-62
2022/06/11 01:00:16;;;;;;;4.80;4.30;;;22.00;69.50;;;24.61;51.34;101899.22;4997488;28;20309;-61
2022/06/11 01:02:48;;;;;;;5.23;3.83;;;22.00;69.50;;;24.62;51.12;101900.03;5013541;28;20365;-62
2022/06/11 01:05:23;;;;;;;5.60;4.47;;;22.00;69.40;;;24.60;50.80;101908.38;5013766;28;20215;-62
2022/06/11 01:08:24;;;;;;;6.60;4.27;;;22.00;69.40;;;24.50;51.16;101904.63;5018392;28;20203;-63
2022/06/11 01:11:22;;;;;;;5.30;4.70;;;22.00;69.40;;;24.47;51.05;101907.78;5032826;28;20214;-61
2022/06/11 01:14:09;;;;;;;6.47;4.90;;;22.00;69.30;;;24.46;51.61;101900.78;5033286;28;20218;-62
2022/06/11 01:16:46;;;;;;;5.80;4.33;;;22.00;69.40;;;24.44;51.34;101898.31;5033607;28;20205;-62
2022/06/11 01:19:59;;;;;;;5.97;4.70;;;21.90;69.40;;;24.37;51.32;101894.94;5043407;28;20267;-62
2022/06/11 01:22:52;;;;;;;6.23;4.63;;;21.90;69.60;;;24.38;51.65;101893.06;5116432;28;20207;-62
2022/06/11 01:25:32;;;;;;;6.43;4.73;;;21.90;69.60;;;24.36;51.52;101892.50;5105658;28;20573;-62
2022/06/11 01:28:32;;;;;;;4.93;4.10;;;21.90;69.60;;;24.35;51.54;101888.16;5095972;28;20185;-62
2022/06/11 01:31:10;;;;;;;7.07;4.70;;;21.90;69.70;;;24.37;51.64;101886.88;5097622;28;20733;-61
2022/06/11 01:33:49;;;;;;;6.50;4.40;;;21.90;69.90;;;24.37;51.51;101886.03;5095472;28;20273;-61
2022/06/11 01:36:24;;;;;;;6.33;4.87;;;21.80;69.80;;;24.34;51.81;101883.84;5095357;28;20198;-61
2022/06/11 01:38:57;;;;;;;6.00;4.40;;;21.80;69.90;;;24.30;51.70;101885.34;5095349;28;20180;-62
2022/06/11 01:41:35;;;;;;;6.50;4.10;;;21.80;69.90;;;24.27;51.58;101877.78;5098851;28;20569;-62
2022/06/11 01:44:10;;;;;;;4.90;4.40;;;21.80;69.80;;;24.30;51.95;101886.19;5115776;28;20215;-62
2022/06/11 01:46:44;;;;;;;4.53;3.70;;;21.70;69.90;;;24.32;51.55;101869.81;5115417;28;20195;-62
2022/06/11 01:49:42;;;;;;;7.03;5.20;;;21.70;69.90;;;24.27;51.46;101875.09;5115760;28;20192;-62
2022/06/11 01:52:36;;;;;;;5.60;5.07;;;21.70;70.00;;;24.22;51.53;101873.91;5115492;28;20756;-62
2022/06/11 01:55:17;;;;;;;7.00;4.63;;;21.80;70.10;;;24.25;51.43;101878.00;5115241;28;20184;-62
2022/06/11 01:58:14;;;;;;;7.00;4.87;;;21.80;70.10;;;24.19;52.10;101879.78;5115286;28;20709;-62
2022/06/11 02:00:51;;;;;;;6.73;4.77;;;21.70;70.00;;;24.20;51.93;101881.41;5074153;28;20209;-62
2022/06/11 02:03:34;;;;;;;5.83;4.43;;;21.70;70.20;;;24.17;52.18;101881.88;5074400;28;20201;-62
2022/06/11 02:06:23;;;;;;;6.20;4.50;;;21.70;70.10;;;24.14;52.05;101882.34;5086812;28;20207;-62
2022/06/11 02:09:21;;;;;;;5.00;4.50;;;21.70;70.20;;;24.12;51.71;101873.69;5113649;28;20230;-62
2022/06/11 02:11:57;;;;;;;5.83;4.57;;;21.60;70.10;;;24.19;51.69;101869.00;5114742;28;20240;-62
2022/06/11 02:14:34;;;;;;;4.20;3.87;;;21.60;70.10;;;24.22;51.56;101870.41;5115052;28;20179;-62
2022/06/11 02:17:10;;;;;;;5.53;4.70;;;21.60;70.00;;;24.21;51.51;101869.59;5112882;28;20198;-62
2022/06/11 02:19:47;;;;;;;7.20;4.90;;;21.60;70.20;;;24.20;51.88;101875.19;5114859;28;20258;-62
2022/06/11 02:22:21;;;;;;;5.27;4.50;;;21.60;70.30;;;24.17;52.22;101876.50;5114513;28;20280;-62
2022/06/11 02:24:56;;;;;;;6.30;5.33;;;21.60;70.50;;;24.11;52.18;101877.44;5114640;28;20201;-62
2022/06/11 02:27:28;;;;;;;7.90;5.17;;;21.60;70.70;;;24.04;52.37;101873.19;5114450;28;20233;-62
2022/06/11 02:29:57;;;;;;;9.50;5.40;;;21.60;70.70;;;24.01;52.55;101873.69;5114647;28;20182;-62
2022/06/11 02:32:29;;;;;;;6.17;4.93;;;21.50;70.80;;;23.97;52.12;101876.00;5111356;28;20219;-61
2022/06/11 02:35:05;;;;;;;6.47;4.90;;;21.50;70.70;;;23.98;52.74;101874.97;5114864;28;20176;-62
2022/06/11 02:37:38;;;;;;;6.93;4.83;;;21.50;71.00;;;24.00;52.41;101885.50;5114731;28;20194;-62
2022/06/11 02:40:15;;;;;;;5.20;4.70;;;21.50;71.00;;;24.02;52.32;101878.81;5114608;28;20211;-61
2022/06/11 02:42:45;;;;;;;8.07;4.87;;;21.40;71.30;;;24.03;52.30;101879.66;5114237;27;20286;-61
2022/06/11 02:45:14;;;;;;;6.10;4.73;;;21.50;71.10;;;24.03;52.23;101880.44;5114366;28;20294;-62
2022/06/11 02:47:45;;;;;;;5.47;4.00;;;21.40;71.10;;;24.03;52.37;101877.75;5114502;28;20275;-62
2022/06/11 02:50:19;;;;;;;4.40;4.00;;;21.40;70.90;;;24.04;51.82;101875.88;5102571;28;20208;-61
2022/06/11 02:52:47;;;;;;;6.03;5.43;;;21.40;70.80;;;24.04;52.17;101873.19;5094048;28;20205;-62
2022/06/11 02:55:14;;;;;;;6.40;4.60;;;21.40;70.80;;;24.04;51.79;101882.09;5093745;28;20184;-62
2022/06/11 02:57:43;;;;;;;7.00;4.90;;;21.40;70.70;;;24.04;52.12;101875.88;5093642;28;20196;-62
2022/06/11 03:00:16;;;;;;;5.87;4.40;;;21.40;70.80;;;24.02;52.02;101878.00;5093784;28;20608;-62
2022/06/11 03:02:48;;;;;;;6.10;4.77;;;21.40;70.80;;;24.02;51.78;101884.19;5093191;28;20219;-62
2022/06/11 03:05:22;;;;;;;9.13;6.03;;;21.40;70.90;;;23.98;51.85;101883.03;5093512;28;20224;-62
2022/06/11 03:07:50;;;;;;;8.83;5.90;;;21.30;70.80;;;23.97;51.71;101884.09;5108336;28;20188;-61
2022/06/11 03:10:23;;;;;;;6.23;4.57;;;21.30;71.00;;;23.95;51.92;101883.50;5113502;28;20657;-62
2022/06/11 03:12:51;;;;;;;7.10;4.97;;;21.30;71.60;;;23.94;51.79;101881.84;5113903;28;20699;-62
2022/06/11 03:15:22;;;;;;;6.33;5.00;;;21.30;70.90;;;23.91;52.14;101885.03;5114319;28;20184;-62
2022/06/11 03:17:52;;;;;;;5.37;4.87;;;21.30;71.00;;;23.88;52.56;101888.19;5113633;28;20263;-62
2022/06/11 03:20:25;;;;;;;7.93;5.23;;;21.30;71.20;;;23.86;52.34;101889.47;5114247;28;20262;-62
2022/06/11 03:22:52;;;;;;;6.67;4.63;;;21.30;71.20;;;23.85;52.28;101888.66;5113111;28;20222;-61
2022/06/11 03:25:20;;;;;;;9.43;5.77;;;21.20;71.10;;;23.88;52.33;101892.75;5113532;28;20204;-62
2022/06/11 03:27:48;;;;;;;6.13;5.07;;;21.20;71.30;;;23.87;52.34;101897.28;5113703;28;20355;-61
2022/06/11 03:30:18;;;;;;;6.43;4.90;;;21.20;71.40;;;23.88;52.11;101898.94;5113635;28;20736;-61
2022/06/11 03:32:46;;;;;;;7.23;5.10;;;21.20;71.60;;;23.89;52.34;101897.88;5113814;27;20306;-60
2022/06/11 03:35:14;;;;;;;10.50;5.70;;;21.20;71.60;;;23.91;52.33;101898.50;5112947;28;20275;-61
2022/06/11 03:37:43;;;;;;;7.37;5.80;;;21.20;71.70;;;23.91;52.55;101909.25;5113377;28;20194;-61
2022/06/11 03:40:12;;;;;;;7.33;5.33;;;21.20;71.70;;;23.88;52.12;101904.31;5113487;28;20192;-61
2022/06/11 03:42:54;;;;;;;7.47;5.77;;;21.20;71.70;;;23.86;52.16;101906.44;5113078;28;20222;-61
2022/06/11 03:45:22;;;;;;;7.77;5.60;;;21.10;71.60;;;23.83;52.20;101911.44;5031131;28;20222;-61
2022/06/11 03:47:49;;;;;;;6.50;5.90;;;21.10;71.60;;;23.82;52.31;101910.63;5030756;28;20226;-63
2022/06/11 03:50:21;;;;;;;6.37;5.80;;;21.10;72.00;;;23.83;52.34;101912.28;5022783;28;20218;-62
2022/06/11 03:52:50;;;;;;;5.83;5.23;;;21.10;72.00;;;23.87;52.47;101907.22;5027600;28;20233;-62
2022/06/11 03:55:19;;;;;;;9.57;6.07;;;21.10;72.10;;;23.89;52.25;101915.91;5011742;28;20191;-62
2022/06/11 03:57:47;;;;;;;8.47;5.77;;;21.10;72.10;;;23.90;52.27;101912.97;5011303;28;20642;-61
2022/06/11 04:01:14;;;;;;;6.33;5.63;;;21.10;72.10;;;23.90;52.44;101907.59;5011440;28;20701;-62
2022/06/11 04:03:09;;;;;;;8.07;5.90;;;21.10;72.20;;;23.89;52.39;101905.94;5011251;28;20634;-62
2022/06/11 04:05:40;;;;;;;5.97;5.37;;;21.10;71.90;;;23.88;52.54;101912.41;5011129;28;20222;-62
2022/06/11 04:08:10;;;;;;;6.07;5.03;;;21.10;71.90;;;23.88;52.22;101915.09;5028170;28;20205;-62
2022/06/11 04:10:38;;;;;;;6.67;5.73;;;21.10;72.00;;;23.90;52.26;101914.84;5030900;28;20216;-61
2022/06/11 04:13:08;;;;;;;6.97;5.53;;;21.10;71.90;;;23.89;52.32;101922.09;5030925;28;20206;-62
2022/06/11 04:15:39;;;;;;;8.30;5.50;;;21.10;71.90;;;23.89;52.69;101916.72;5031033;28;20198;-62
2022/06/11 04:18:09;;;;;;;8.57;6.20;;;21.20;72.00;;;23.87;52.35;101918.81;5030941;28;20199;-62
2022/06/11 04:20:36;;;;;;;6.40;5.80;;;21.20;72.00;;;23.86;52.36;101927.94;5030329;28;20191;-61
2022/06/11 04:23:03;;;;;;;9.47;6.57;;;21.10;72.30;;;23.84;52.73;101930.06;5090978;28;20200;-62
2022/06/11 04:25:33;;;;;;;6.67;5.23;;;21.10;72.10;;;23.83;52.40;101928.41;5116916;28;20693;-62
2022/06/11 04:28:00;;;;;;;10.87;7.03;;;21.10;72.10;;;23.83;52.24;101928.41;5116905;28;20283;-62
2022/06/11 04:30:27;;;;;;;10.13;7.33;;;21.10;72.20;;;23.83;52.87;101932.97;5116448;28;20203;-62
2022/06/11 04:32:55;;;;;;;7.10;6.40;;;21.10;72.20;;;23.81;52.59;101940.44;5117049;28;20197;-62
2022/06/11 04:35:22;;;;;;;8.87;7.30;;;21.10;72.20;;;23.82;52.49;101940.22;5117272;28;20190;-62
2022/06/11 04:37:50;;;;;;;10.63;8.03;;;21.10;72.30;;;23.80;52.96;101936.94;5116755;28;20213;-62
2022/06/11 04:40:18;;;;;;;11.60;8.23;;;21.10;72.70;;;23.70;53.42;101935.88;5116517;28;20188;-62
2022/06/11 04:42:47;;;;;;;10.60;8.13;;;21.10;72.90;;;23.65;53.53;101931.22;5116901;28;20679;-62
2022/06/11 04:45:16;;;;;;;8.70;7.80;;;21.10;73.10;;;23.63;54.11;101938.66;5116431;28;20208;-61
2022/06/11 04:47:45;;;;;;;10.37;8.20;;;21.10;73.30;;;23.65;53.85;101941.13;5116634;28;20274;-60
2022/06/11 04:50:16;;;;;;;9.73;7.27;;;21.10;73.40;;;23.61;54.03;101946.13;5116148;28;20196;-62
2022/06/11 04:52:44;;;;;;;8.63;7.53;;;21.10;73.50;;;23.63;54.20;101938.66;5116803;28;20207;-61
2022/06/11 04:55:11;;;;;;;9.17;7.00;;;21.10;73.50;;;23.68;53.81;101946.84;5116689;28;20188;-62
2022/06/11 04:57:39;;;;;;;11.47;7.07;;;21.10;73.30;;;23.74;53.53;101945.94;5108177;28;20224;-61
2022/06/11 05:00:13;;;;;;;8.37;6.90;;;21.10;74.00;;;23.76;53.30;101941.16;5096114;28;20193;-62
2022/06/11 05:02:40;;;;;;;11.70;6.90;;;21.10;73.10;;;23.80;53.55;101936.94;5095861;28;20205;-62
2022/06/11 05:05:09;;;;;;;8.33;7.13;;;21.10;73.10;;;23.88;53.18;101941.16;5096313;28;20216;-60
2022/06/11 05:07:37;;;;;;;9.20;7.47;;;21.10;72.90;;;23.98;52.87;101947.63;5097214;28;20216;-62
2022/06/11 05:10:07;;;;;;;7.53;6.63;;;21.20;73.00;;;24.10;52.70;101944.94;5095788;28;20204;-62
2022/06/11 05:12:34;;;;;;;9.83;7.33;;;21.20;73.00;;;24.20;52.58;101945.16;5095086;28;20243;-62
2022/06/11 05:15:03;;;;;;;7.80;6.57;;;21.30;72.90;;;24.29;52.52;101943.78;5105223;28;20217;-62
2022/06/11 05:17:32;;;;;;;8.83;8.00;;;21.30;72.80;;;24.33;52.07;101944.09;5116146;28;20184;-62
2022/06/11 05:20:00;;;;;;;9.77;8.13;;;21.40;72.40;;;24.27;52.08;101943.16;5115833;28;20180;-61
2022/06/11 05:22:27;;;;;;;8.47;7.10;;;21.50;72.20;;;24.23;52.67;101950.91;5116071;28;20580;-62
2022/06/11 05:24:55;;;;;;;10.40;7.10;;;21.50;72.00;;;24.25;52.47;101957.94;5116162;28;20287;-61
2022/06/11 05:27:25;;;;;;;7.87;7.07;;;21.50;71.80;;;24.28;51.95;101950.19;5115856;28;20215;-62
2022/06/11 05:29:59;;;;;;;10.83;8.00;;;21.50;71.80;;;24.32;51.70;101966.72;5117756;28;20188;-62
2022/06/11 05:32:35;;;;;;;8.23;7.47;;;21.50;71.80;;;24.38;52.02;101968.44;5115128;28;20272;-62
2022/06/11 05:35:07;;;;;;;8.27;6.57;;;21.60;71.90;;;24.45;51.58;101963.75;5115659;28;20199;-62
2022/06/11 05:37:35;;;;;;;7.60;6.87;;;21.60;71.90;;;24.49;51.63;101965.75;5115665;28;20593;-62
2022/06/11 05:40:07;;;;;;;9.33;7.40;;;21.60;71.80;;;24.55;51.63;101970.19;5115521;28;20192;-62
2022/06/11 05:42:34;;;;;;;7.20;5.87;;;21.60;71.70;;;24.61;51.32;101968.41;5115345;28;20204;-62
2022/06/11 05:45:02;;;;;;;8.20;7.40;;;21.70;71.80;;;24.67;51.55;101978.25;5115494;28;20614;-62
2022/06/11 05:47:33;;;;;;;10.70;7.53;;;21.70;71.60;;;24.69;51.09;101981.53;5114384;28;20702;-62
2022/06/11 05:50:02;;;;;;;9.17;7.40;;;21.80;71.30;;;24.68;51.67;101969.94;5094920;28;20279;-61
2022/06/11 05:52:37;;;;;;;10.97;7.57;;;21.80;71.20;;;24.68;50.58;101977.19;5094737;28;20239;-62
2022/06/11 05:55:06;;;;;;;7.40;6.63;;;21.80;70.80;;;24.67;51.17;101975.56;5095124;28;20192;-62
2022/06/11 05:57:34;;;;;;;9.17;7.57;;;21.80;70.40;;;24.60;50.92;101982.94;5093784;28;20279;-61
2022/06/11 06:00:12;;;;;;;8.50;7.07;;;21.80;70.10;;;24.54;50.77;101979.31;5076191;28;20287;-62
2022/06/11 06:02:42;;;;;;;9.63;6.47;;;21.80;70.20;;;24.54;50.69;101973.09;5094602;28;20226;-62
2022/06/11 06:05:14;;;;;;;7.20;5.87;;;21.80;70.00;;;24.56;51.11;101971.00;5102457;28;20180;-62
2022/06/11 06:07:44;;;;;;;7.57;5.57;;;21.80;70.00;;;24.57;51.10;101967.25;5114753;28;20604;-63
2022/06/11 06:10:12;;;;;;;6.93;6.10;;;21.80;69.80;;;24.59;50.52;101974.03;5114412;28;20202;-63
2022/06/11 06:12:40;;;;;;;7.87;6.43;;;21.80;69.70;;;24.60;50.85;101972.19;5115387;28;20539;-62
2022/06/11 06:15:12;;;;;;;8.47;7.03;;;21.80;69.50;;;24.62;49.98;101975.44;5115199;28;20222;-62
2022/06/11 06:17:42;;;;;;;8.37;7.47;;;21.80;69.30;;;24.60;50.42;101972.19;5113816;28;20270;-62
2022/06/11 06:20:23;;;;;;;9.63;7.60;;;21.80;69.20;;;24.59;50.26;101974.03;5114630;28;20237;-63
2022/06/11 06:22:54;;;;;;;9.07;7.47;;;21.90;69.30;;;24.62;50.25;101986.22;5112626;28;20274;-61
2022/06/11 06:25:22;;;;;;;8.23;7.13;;;21.90;69.20;;;24.68;49.74;101972.63;5114756;28;20220;-62
2022/06/11 06:27:49;;;;;;;9.90;7.87;;;21.90;68.80;;;24.59;49.64;101981.31;5114386;28;20188;-62
2022/06/11 06:30:18;;;;;;;9.07;7.90;;;21.90;68.00;;;24.46;50.04;101976.19;5114385;28;20271;-62
2022/06/11 06:32:47;;;;;;;10.83;6.90;;;21.90;67.50;;;24.51;49.73;101973.59;5114209;28;20272;-61
2022/06/11 06:35:14;;;;;;;7.40;6.67;;;22.00;67.80;;;24.63;49.38;101977.06;5114788;28;20574;-61
2022/06/11 06:37:42;;;;;;;6.87;6.07;;;22.00;67.70;;;24.74;49.17;101976.25;5112929;28;20279;-62
2022/06/11 06:40:11;;;;;;;7.47;5.40;;;22.00;67.30;;;24.84;48.66;101979.19;5100779;28;20196;-61
2022/06/11 06:42:38;;;;;;;7.33;5.33;;;22.10;65.90;;;24.92;47.05;101981.50;5093336;28;20212;-62
2022/06/11 06:45:07;;;;;;;7.43;5.63;;;22.10;64.70;;;24.95;46.29;101985.59;5093715;28;20541;-62
2022/06/11 06:47:34;;;;;;;7.43;4.83;;;22.10;63.50;;;24.89;46.58;101987.34;5093948;28;20189;-62
2022/06/11 06:50:26;;;;;;;4.83;3.70;;;22.20;62.80;;;24.90;46.15;101978.22;5069784;28;20208;-61
2022/06/11 06:52:53;;;;;;;6.50;4.73;;;22.20;62.10;;;24.82;45.56;101983.97;5093673;28;20497;-61
2022/06/11 06:55:21;;;;;;;5.77;3.80;;;22.20;61.10;;;24.82;45.81;101983.97;5094019;28;20208;-61
2022/06/11 06:57:49;;;;;;;4.43;3.53;;;22.30;60.80;;;24.89;45.46;101990.03;5112272;28;20549;-62
2022/06/11 07:00:18;;;;;;;6.37;4.27;;;22.30;60.40;;;24.81;44.67;101980.47;5114010;28;20202;-61
2022/06/11 07:02:46;;;;;;;5.73;3.43;;;22.30;59.80;;;24.83;44.90;101977.53;5113559;28;20664;-61
2022/06/11 07:05:16;;;;;;;5.13;3.53;;;22.40;59.90;;;24.99;44.51;101982.16;5114108;28;20319;-62
2022/06/11 07:07:47;;;;;;;4.87;3.23;;;22.40;60.10;;;25.16;44.24;101993.84;5114151;28;20221;-62
2022/06/11 07:10:15;;;;;;;4.90;3.17;;;22.50;60.00;;;25.31;44.71;101991.44;5112009;28;20192;-62
2022/06/11 07:12:43;;;;;;;5.00;2.70;;;22.50;60.00;;;25.42;44.03;101995.94;5108567;28;20449;-62
2022/06/11 07:15:11;;;;;;;5.07;3.00;;;22.60;59.60;;;25.48;43.46;101997.69;5093312;28;20192;-62
2022/06/11 07:17:44;;;;;;;5.77;2.90;;;22.60;59.50;;;25.53;43.76;101997.78;5093204;28;20188;-62
2022/06/11 07:20:17;;;;;;;5.77;3.07;;;22.70;59.30;;;25.55;42.67;101997.56;5093359;28;20203;-61
2022/06/11 07:22:57;;;;;;;4.23;2.53;;;22.70;58.60;;;25.59;43.53;101992.50;5093470;28;20644;-61
2022/06/11 07:25:26;;;;;;;3.90;2.97;;;22.70;58.70;;;25.65;43.26;102005.03;5097457;28;20192;-62
2022/06/11 07:28:02;;;;;;;7.30;3.60;;;22.70;58.30;;;25.66;43.01;101998.56;5112307;28;20188;-62
2022/06/11 07:30:35;;;;;;;5.43;2.90;;;22.80;58.50;;;25.65;42.94;101992.34;5113035;28;20253;-61
2022/06/11 07:33:07;;;;;;;3.87;2.70;;;22.80;58.20;;;25.69;42.75;101981.88;5113624;28;20184;-62
2022/06/11 07:35:42;;;;;;;2.03;1.87;;;22.80;57.80;;;25.73;41.97;101988.41;5112451;28;20646;-62
2022/06/11 07:38:13;;;;;;;4.60;2.70;;;22.80;57.10;;;25.75;41.47;101989.00;5112275;28;20196;-60
2022/06/11 07:40:42;;;;;;;4.50;2.77;;;22.90;57.20;;;25.49;40.70;101996.66;5112943;28;20246;-62
2022/06/11 07:43:23;;;;;;;4.07;2.50;;;22.90;55.40;;;25.52;41.15;101993.47;5113365;28;20645;-62
2022/06/11 07:45:51;;;;;;;4.53;2.27;;;23.00;55.80;;;25.67;41.42;102011.81;5113167;28;20264;-62
2022/06/11 07:48:18;;;;;;;5.47;2.30;;;23.10;55.50;;;25.72;40.55;101997.59;5113258;28;20544;-61
2022/06/11 07:50:50;;;;;;;2.87;2.00;;;23.10;55.20;;;25.77;40.48;102003.09;5112959;28;20221;-62
2022/06/11 07:53:21;;;;;;;3.63;2.30;;;23.20;54.50;;;25.65;39.88;102007.72;5112806;28;20623;-62
2022/06/11 07:55:52;;;;;;;5.07;2.60;;;23.20;54.20;;;25.63;40.67;102004.44;5113720;28;20191;-62
2022/06/11 07:58:27;;;;;;;5.60;3.13;;;23.20;54.10;;;25.61;39.65;102003.84;5097181;28;20498;-62
2022/06/11 08:00:57;;;;;;;3.73;2.30;;;23.20;52.90;;;25.67;40.04;102011.00;5096836;28;20204;-62
2022/06/11 08:03:32;;;;;;;3.13;2.27;;;23.20;53.10;;;25.74;39.89;102022.44;5097524;28;20193;-62
2022/06/11 08:05:59;;;;;;;6.07;2.47;;;23.20;53.00;;;25.82;39.92;102003.13;5096835;28;20223;-62
2022/06/11 08:08:29;;;;;;;8.70;3.00;;;23.30;53.50;;;25.93;39.15;102016.59;5096951;28;20258;-62
2022/06/11 08:10:59;;;;;;;5.37;3.00;;;23.30;53.00;;;25.97;38.63;102006.09;5096558;28;20230;-62
2022/06/11 08:13:27;;;;;;;3.60;2.10;;;23.30;52.60;;;26.00;38.63;102011.84;5099963;28;20188;-62
2022/06/11 08:15:56;;;;;;;4.30;2.57;;;23.40;52.50;;;26.33;37.64;102021.81;5117528;28;20636;-62
2022/06/11 08:18:25;;;;;;;3.27;1.87;;;23.40;50.80;;;26.94;37.08;102015.38;5117066;28;20215;-62
2022/06/11 08:20:53;;;;;;;5.47;2.50;;;23.60;51.30;;;28.02;34.78;102026.03;5116127;28;20231;-62
2022/06/11 08:23:22;;;;;;;4.40;2.30;;;23.90;50.40;;;29.14;33.34;102020.19;5115186;28;20270;-62
2022/06/11 08:25:52;;;;;;;5.03;2.53;;;24.40;49.20;;;30.33;31.35;102014.38;5116825;28;20184;-62
2022/06/11 08:28:21;;;;;;;4.07;2.37;;;25.10;48.10;;;31.53;30.52;102017.69;5116830;28;20263;-61
2022/06/11 08:30:50;;;;;;;4.63;3.23;;;25.90;47.40;;;32.62;28.23;102005.25;5108162;28;20261;-61
2022/06/11 08:33:19;;;;;;;5.70;2.70;;;26.60;44.40;;;33.43;26.40;102008.53;5097166;28;20212;-61
2022/06/11 08:35:48;;;;;;;3.93;2.43;;;27.30;42.40;;;34.09;25.76;102028.56;5116926;28;20272;-63
2022/06/11 08:38:15;;;;;;;3.83;2.30;;;27.90;40.10;;;34.82;25.08;102007.47;5116273;28;20176;-63
2022/06/11 08:40:48;;;;;;;5.93;2.67;;;28.60;39.80;;;35.47;23.25;102009.84;5116262;28;20690;-63
2022/06/11 08:43:23;;;;;;;5.93;2.77;;;29.10;37.20;;;35.90;22.35;102019.19;5116542;28;20262;-61
2022/06/11 08:45:56;;;;;;;5.67;2.70;;;29.60;35.20;;;36.45;22.85;102017.75;5116419;28;20191;-61
2022/06/11 08:48:43;;;;;;;4.23;2.77;;;30.00;34.70;;;36.94;20.73;102022.13;5098854;28;20196;-60
2022/06/11 08:51:23;;;;;;;5.27;3.23;;;30.60;33.60;;;36.98;21.31;102014.88;5095905;28;20697;-63
2022/06/11 08:53:57;;;;;;;4.13;2.60;;;30.90;32.90;;;37.26;21.59;102029.91;5095792;28;20234;-62
2022/06/11 08:56:35;;;;;;;7.37;3.10;;;31.30;33.00;;;37.82;20.68;102028.13;5095636;28;20263;-63
2022/06/11 08:59:48;;;;;;;6.20;3.33;;;31.60;32.00;;;38.05;19.80;102021.28;5095617;28;20189;-63
2022/06/11 09:02:40;;;;;;;7.50;3.72;;;31.90;31.70;;;38.50;20.13;102027.94;5092997;28;20600;-62
2022/06/11 09:05:28;;;;;;;5.13;2.80;;;32.20;30.00;;;38.68;20.13;102033.38;5110468;28;20186;-61
2022/06/11 09:08:14;;;;;;;4.97;3.13;;;32.40;30.00;;;38.89;19.95;102023.22;5115455;27;20295;-63
2022/06/11 09:11:11;;;;;;;4.90;3.10;;;32.70;29.90;;;39.70;19.52;102020.81;5115808;28;20231;-61
2022/06/11 09:14:24;;;;;;;5.78;3.35;;;33.00;29.80;;;40.20;18.20;102028.88;5115881;28;20211;-61
2022/06/11 09:17:31;;;;;;;10.05;4.22;;;33.40;29.00;;;39.89;18.72;102030.16;5115790;28;20223;-62
2022/06/11 09:20:34;;;;;;;5.93;3.17;;;33.60;27.70;;;40.20;18.60;102034.41;5114848;28;20559;-62
2022/06/11 09:23:43;;;;;;;7.45;3.30;;;33.90;28.30;;;40.52;18.18;102030.75;5095788;28;20626;-62
2022/06/11 09:26:31;;;;;;;7.65;3.88;;;34.10;27.40;;;40.42;17.59;102015.41;5094116;28;20203;-62
2022/06/11 09:29:12;;;;;;;7.10;4.10;;;34.00;26.80;;;39.97;18.21;102022.94;5095442;28;20511;-61
2022/06/11 09:31:48;;;;;;;6.22;3.47;;;34.20;27.30;;;39.40;18.31;102025.59;5095104;28;20212;-61
2022/06/11 09:34:28;;;;;;;6.80;3.58;;;33.90;26.90;;;39.48;18.46;102024.72;5095446;28;20188;-62
2022/06/11 09:37:03;;;;;;;8.50;3.80;;;34.10;27.20;;;39.82;18.78;102013.34;5093166;27;20523;-61
2022/06/11 09:39:39;;;;;;;5.10;2.92;;;34.10;27.40;;;40.38;18.24;102020.03;5111253;28;20199;-61
2022/06/11 09:42:42;;;;;;;12.73;6.85;;;34.20;27.00;;;40.73;17.86;102025.09;5096051;28;20254;-60
2022/06/11 09:45:20;;;;;;;9.00;3.85;;;34.40;27.40;;;40.77;17.92;102021.28;5088110;28;20196;-61
2022/06/11 09:48:13;;;;;;;5.20;3.45;;;34.50;26.70;;;41.27;17.56;102033.88;5090610;28;20311;-61
2022/06/11 09:50:50;;;;;;;6.70;4.03;;;34.60;26.50;;;41.35;16.64;102042.03;5074156;28;20231;-60
2022/06/11 09:53:41;;;;;;;4.68;3.28;;;34.60;26.20;;;41.53;16.88;102037.03;5092883;28;20271;-61
2022/06/11 09:56:25;;;;;;;5.10;3.30;;;34.80;26.40;;;42.20;16.55;102033.34;5090645;28;20591;-61
2022/06/11 09:59:11;;;;;;;7.22;3.35;;;34.90;26.50;;;42.33;16.00;102037.59;5093933;28;20192;-62
2022/06/11 10:01:48;;;;;;;7.22;4.40;;;35.10;25.60;;;42.11;16.18;102036.28;5094378;28;20220;-62
2022/06/11 10:04:26;;;;;;;5.55;3.55;;;35.20;25.20;;;41.83;16.31;102035.50;5074611;28;20262;-61
2022/06/11 10:06:56;;;;;;;7.80;3.75;;;35.20;25.30;;;41.19;16.05;102039.19;5083898;28;20216;-62
2022/06/11 10:09:31;;;;;;;7.05;3.20;;;35.20;25.10;;;40.91;16.93;102032.81;5110692;28;20275;-61
2022/06/11 10:12:14;;;;;;;6.22;3.03;;;35.00;25.70;;;40.54;17.33;102047.78;5099279;27;20306;-61
2022/06/11 10:14:51;;;;;;;11.15;4.25;;;34.90;25.60;;;40.66;17.08;102036.72;5078148;28;20213;-62
2022/06/11 10:17:25;;;;;;;8.20;3.60;;;34.70;25.30;;;40.98;16.45;102038.56;5073951;28;20184;-63
2022/06/11 10:20:04;;;;;;;7.93;3.30;;;34.70;25.50;;;41.08;16.60;102040.81;5073005;28;20242;-61
2022/06/11 10:22:42;;;;;;;6.97;3.88;;;34.80;26.00;;;41.27;16.97;102044.94;5085610;28;20216;-61
2022/06/11 10:25:23;;;;;;;9.05;3.70;;;34.80;26.00;;;40.75;16.93;102045.69;5093561;28;20594;-63
2022/06/11 10:27:59;;;;;;;8.68;3.50;;;34.60;25.30;;;40.14;17.18;102041.28;5094061;28;20219;-61
2022/06/11 10:30:41;;;;;;;8.82;3.70;;;34.50;25.20;;;40.38;17.49;102046.81;5085678;28;20546;-61
2022/06/11 10:33:19;;;;;;;5.65;3.13;;;34.40;25.50;;;39.88;17.10;102049.81;5073552;28;20588;-63
2022/06/11 10:35:58;;;;;;;5.45;3.13;;;34.20;25.50;;;39.22;17.90;102054.47;5089134;28;20207;-62
2022/06/11 10:38:51;;;;;;;8.95;3.63;;;34.10;26.10;;;38.15;19.00;102048.47;5093531;28;20221;-62
2022/06/11 10:41:27;;;;;;;9.20;3.97;;;33.70;26.60;;;37.93;19.26;102051.44;5092912;28;20209;-62
2022/06/11 10:44:17;;;;;;;10.50;4.32;;;33.30;27.00;;;37.37;19.60;102044.16;5093289;28;20188;-62